Time;durP1;ratioP1;P1;durP2;ratioP2;P2;SDS_P1;SDS_P2;PMS_P1;PMS_P2;Temp;Humidity;BMP_temperature;BMP_pressure;BME280_temperature;BME280_humidity;BME280_pressure;Samples;Min_cycle;Max_cycle;Signal;HPM_P1;HPM_P2
2021/12/24 00:04:32;;;;;;;;;;;;;;;18.23;27.72;95005.75;10415689;28;1811;-44
2021/12/24 00:09:34;;;;;;;;;;;;;;;18.21;27.66;94994.75;10404168;28;1923;-45
2021/12/24 00:14:34;;;;;;;;;;;;;;;18.22;27.72;94988.44;10409724;28;1818;-45
2021/12/24 00:19:43;;;;;;;;;;;;;;;18.19;27.75;94986.38;10401833;28;1935;-43
2021/12/24 00:35:33;;;;;;;;;;;;;;;18.12;27.94;94972.78;10421687;28;1898;-40
2021/12/24 00:40:44;;;;;;;;;;;;;;;18.14;27.73;94960.19;10399143;28;1906;-41
2021/12/24 00:45:45;;;;;;;;;;;;;;;18.14;27.88;94952.31;10416339;28;1859;-40
2021/12/24 00:51:07;;;;;;;;;;;;;;;18.12;27.81;94946.56;10401649;28;1855;-42
2021/12/24 00:56:14;;;;;;;;;;;;;;;18.09;27.88;94941.88;10394330;28;1879;-41
2021/12/24 01:01:14;;;;;;;;;;;;;;;18.07;28.07;94950.03;10408368;28;1914;-41
2021/12/24 01:06:15;;;;;;;;;;;;;;;18.07;27.96;94949.25;10415052;28;1759;-46
2021/12/24 01:11:15;;;;;;;;;;;;;;;18.01;28.04;94943.25;10402004;28;1851;-44
2021/12/24 01:16:26;;;;;;;;;;;;;;;18.06;27.90;94926.69;10418556;28;1831;-42
2021/12/24 01:21:46;;;;;;;;;;;;;;;18.08;27.85;94929.81;10410869;28;2223;-42
2021/12/24 01:27:12;;;;;;;;;;;;;;;18.06;28.13;94931.94;10403962;28;1839;-46
2021/12/24 01:37:57;;;;;;;;;;;;;;;18.06;28.17;94937.19;10406058;28;2101;-45
2021/12/24 01:42:58;;;;;;;;;;;;;;;17.99;28.09;94932.25;10386214;28;2243;-44
2021/12/24 01:47:59;;;;;;;;;;;;;;;18.05;28.08;94925.94;10397632;28;2136;-45
2021/12/24 01:53:00;;;;;;;;;;;;;;;18.01;28.19;94921.50;10408189;28;2078;-42
2021/12/24 01:58:01;;;;;;;;;;;;;;;17.99;28.25;94915.75;10403555;28;2081;-41
2021/12/24 02:03:01;;;;;;;;;;;;;;;18.01;28.15;94911.00;10407702;28;2116;-40
2021/12/24 02:08:02;;;;;;;;;;;;;;;18.02;28.05;94899.44;10407182;28;2220;-39
2021/12/24 02:13:02;;;;;;;;;;;;;;;18.03;28.06;94893.16;10404312;28;2010;-41
2021/12/24 02:28:40;;;;;;;;;;;;;;;18.03;28.15;94872.19;10397161;28;1886;-42
2021/12/24 02:33:41;;;;;;;;;;;;;;;17.99;28.11;94858.06;10401033;28;2003;-43
2021/12/24 02:38:41;;;;;;;;;;;;;;;18.00;28.17;94839.44;10399092;28;2001;-42
2021/12/24 02:43:42;;;;;;;;;;;;;;;18.00;28.13;94839.44;10406467;28;1965;-40
2021/12/24 02:54:01;;;;;;;;;;;;;;;18.02;28.15;94820.78;10406390;28;1965;-39
2021/12/24 02:59:12;;;;;;;;;;;;;;;18.01;28.22;94808.75;10397278;28;1918;-41
2021/12/24 03:04:13;;;;;;;;;;;;;;;17.99;28.23;94803.75;10407922;28;2096;-39
2021/12/24 03:09:15;;;;;;;;;;;;;;;18.00;28.25;94796.69;10403751;28;1973;-42
2021/12/24 03:14:18;;;;;;;;;;;;;;;18.03;28.33;94783.81;10410697;28;2112;-39
2021/12/24 03:19:23;;;;;;;;;;;;;;;17.97;28.27;94792.78;10399673;28;2047;-41
2021/12/24 03:29:25;;;;;;;;;;;;;;;17.95;28.30;94789.66;10419040;28;1985;-39
2021/12/24 03:34:25;;;;;;;;;;;;;;;18.02;28.25;94786.69;10415454;28;2110;-40
2021/12/24 03:39:25;;;;;;;;;;;;;;;17.97;28.28;94784.91;10407138;28;2045;-44
2021/12/24 03:44:38;;;;;;;;;;;;;;;17.99;28.38;94785.41;10430223;28;1930;-41
2021/12/24 03:49:51;;;;;;;;;;;;;;;17.99;28.30;94774.16;10403628;28;1926;-40
2021/12/24 03:54:58;;;;;;;;;;;;;;;17.95;28.40;94773.16;10411616;28;1937;-40
2021/12/24 04:00:00;;;;;;;;;;;;;;;17.96;28.31;94774.69;10410179;28;1938;-42
2021/12/24 04:05:00;;;;;;;;;;;;;;;17.97;28.22;94765.78;10412463;28;1868;-41
2021/12/24 04:15:34;;;;;;;;;;;;;;;17.95;28.61;94760.06;10391247;28;2024;-42
2021/12/24 04:25:54;;;;;;;;;;;;;;;17.96;28.53;94764.22;10403556;28;2078;-63
2021/12/24 04:30:54;;;;;;;;;;;;;;;17.90;28.55;94755.63;10397896;28;1903;-64
2021/12/24 04:36:18;;;;;;;;;;;;;;;17.97;28.43;94769.16;10400074;28;2016;-64
2021/12/24 04:52:02;;;;;;;;;;;;;;;17.94;28.52;94768.97;10404704;28;1966;-61
2021/12/24 05:12:51;;;;;;;;;;;;;;;17.95;28.58;94763.44;10411382;28;1922;-63
2021/12/24 05:22:58;;;;;;;;;;;;;;;17.98;28.56;94764.72;10397943;28;1958;-63
2021/12/24 05:27:58;;;;;;;;;;;;;;;17.93;28.81;94764.78;10386514;28;2008;-64
2021/12/24 05:32:59;;;;;;;;;;;;;;;17.97;28.66;94768.41;10389461;28;1908;-64
2021/12/24 05:37:59;;;;;;;;;;;;;;;17.98;28.60;94768.13;10404908;28;1961;-67
2021/12/24 05:43:00;;;;;;;;;;;;;;;17.99;28.59;94774.16;10398073;28;1953;-63
2021/12/24 05:48:00;;;;;;;;;;;;;;;17.94;28.74;94767.13;10413674;28;2008;-64
2021/12/24 05:53:00;;;;;;;;;;;;;;;17.98;28.67;94765.50;10409607;28;1913;-64
2021/12/24 05:58:06;;;;;;;;;;;;;;;17.97;28.75;94771.03;10399229;28;1976;-63
2021/12/24 06:03:06;;;;;;;;;;;;;;;17.96;28.68;94770.25;10405255;28;2114;-63
2021/12/24 06:08:07;;;;;;;;;;;;;;;18.02;28.68;94774.38;10405824;28;2174;-64
2021/12/24 06:13:07;;;;;;;;;;;;;;;17.98;28.77;94775.19;10407619;28;1890;-64
2021/12/24 06:18:13;;;;;;;;;;;;;;;17.95;28.76;94776.53;10393628;28;2028;-63
2021/12/24 06:23:13;;;;;;;;;;;;;;;17.98;28.74;94780.44;10410894;28;1957;-63
2021/12/24 06:28:14;;;;;;;;;;;;;;;17.98;28.70;94775.19;10392697;28;1984;-63
2021/12/24 06:33:14;;;;;;;;;;;;;;;17.95;28.83;94768.66;10411599;28;1995;-64
2021/12/24 06:38:14;;;;;;;;;;;;;;;17.96;28.85;94775.50;10400144;28;1977;-64
2021/12/24 06:43:15;;;;;;;;;;;;;;;17.98;28.70;94778.63;10401366;28;2280;-62
2021/12/24 06:48:15;;;;;;;;;;;;;;;17.93;28.88;94775.28;10388225;28;1949;-64
2021/12/24 06:53:16;;;;;;;;;;;;;;;17.98;28.72;94778.63;10403055;28;2049;-62
2021/12/24 06:58:16;;;;;;;;;;;;;;;17.94;28.94;94782.84;10403947;28;1936;-64
2021/12/24 07:03:16;;;;;;;;;;;;;;;18.01;28.76;94782.53;10405219;28;1965;-64
2021/12/24 07:08:17;;;;;;;;;;;;;;;18.00;28.81;94792.22;10402917;28;1930;-63
2021/12/24 07:13:17;;;;;;;;;;;;;;;17.98;28.64;94785.69;10414277;28;1862;-63
2021/12/24 07:18:18;;;;;;;;;;;;;;;18.02;28.70;94789.31;10405979;28;2091;-63
2021/12/24 07:23:18;;;;;;;;;;;;;;;17.94;28.79;94789.94;10412337;28;2017;-63
2021/12/24 07:28:18;;;;;;;;;;;;;;;17.97;28.83;94792.78;10412182;28;2048;-63
2021/12/24 07:33:19;;;;;;;;;;;;;;;17.99;28.85;94792.50;10410532;28;1901;-63
2021/12/24 07:38:19;;;;;;;;;;;;;;;17.99;28.88;94787.28;10405646;28;1912;-64
2021/12/24 07:43:19;;;;;;;;;;;;;;;17.95;28.91;94788.88;10409984;28;1910;-63
2021/12/24 07:48:27;;;;;;;;;;;;;;;17.97;28.83;94794.63;10401373;28;2016;-63
2021/12/24 07:53:28;;;;;;;;;;;;;;;17.95;29.03;94799.38;10411480;28;1991;-62
2021/12/24 07:58:28;;;;;;;;;;;;;;;17.97;28.92;94792.78;10399980;28;1955;-64
2021/12/24 08:03:29;;;;;;;;;;;;;;;17.99;28.92;94789.88;10407993;28;1958;-62
2021/12/24 08:08:29;;;;;;;;;;;;;;;17.97;28.93;94794.63;10403554;28;1890;-63
2021/12/24 08:13:29;;;;;;;;;;;;;;;17.99;28.85;94795.91;10414642;28;1886;-62
2021/12/24 08:18:30;;;;;;;;;;;;;;;17.99;29.03;94809.00;10399443;28;1999;-62
2021/12/24 08:23:31;;;;;;;;;;;;;;;18.01;28.81;94791.16;10404870;28;2018;-62
2021/12/24 08:28:31;;;;;;;;;;;;;;;18.01;28.87;94798.25;10401436;28;1945;-63
2021/12/24 08:33:34;;;;;;;;;;;;;;;17.96;28.92;94806.97;10410228;28;1976;-62
2021/12/24 08:38:34;;;;;;;;;;;;;;;17.96;28.93;94808.78;10402417;28;2007;-63
2021/12/24 08:43:34;;;;;;;;;;;;;;;17.97;28.92;94821.63;10403319;28;2075;-62
2021/12/24 08:48:35;;;;;;;;;;;;;;;17.92;29.04;94816.44;10383867;28;2069;-61
2021/12/24 08:53:35;;;;;;;;;;;;;;;17.95;29.12;94809.88;10395059;28;1981;-62
2021/12/24 08:58:37;;;;;;;;;;;;;;;17.96;29.11;94803.53;10394232;28;2053;-62
2021/12/24 09:03:37;;;;;;;;;;;;;;;18.01;28.95;94814.75;10412606;28;1955;-62
2021/12/24 09:08:42;;;;;;;;;;;;;;;17.97;29.01;94805.13;10406200;28;1973;-62
2021/12/24 09:13:43;;;;;;;;;;;;;;;17.95;29.11;94810.63;10410224;28;1953;-63
2021/12/24 09:18:44;;;;;;;;;;;;;;;17.96;29.18;94808.78;10386272;28;1985;-62
2021/12/24 09:23:47;;;;;;;;;;;;;;;17.97;29.10;94808.50;10395449;28;2050;-62
2021/12/24 09:28:48;;;;;;;;;;;;;;;17.98;29.11;94810.09;10392004;28;2168;-62
2021/12/24 09:33:49;;;;;;;;;;;;;;;17.99;29.16;94814.25;10400212;28;1936;-62
2021/12/24 09:38:49;;;;;;;;;;;;;;;18.01;29.16;94809.50;10397681;28;2017;-62
2021/12/24 09:43:51;;;;;;;;;;;;;;;17.99;29.17;94797.75;10406686;28;1914;-62
2021/12/24 09:48:52;;;;;;;;;;;;;;;18.00;29.25;94796.69;10398452;28;2099;-63
2021/12/24 09:53:53;;;;;;;;;;;;;;;18.00;29.18;94786.19;10408843;28;1969;-63
2021/12/24 09:58:54;;;;;;;;;;;;;;;18.02;29.14;94784.84;10403096;28;1991;-62
2021/12/24 10:03:59;;;;;;;;;;;;;;;17.99;29.21;94784.66;10404714;28;1918;-62
2021/12/24 10:09:18;;;;;;;;;;;;;;;18.04;29.04;94793.22;10403747;28;1906;-62
2021/12/24 10:14:19;;;;;;;;;;;;;;;18.03;29.15;94785.66;10391155;28;2046;-63
2021/12/24 10:19:19;;;;;;;;;;;;;;;18.01;29.25;94780.66;10394421;28;1984;-62
2021/12/24 10:24:20;;;;;;;;;;;;;;;18.04;29.08;94763.59;10406123;28;2013;-63
2021/12/24 10:29:26;;;;;;;;;;;;;;;18.04;29.13;94774.09;10393639;28;1906;-63
2021/12/24 10:34:34;;;;;;;;;;;;;;;18.02;29.16;94774.38;10406032;28;2456;-62
2021/12/24 10:39:40;;;;;;;;;;;;;;;18.00;29.23;94771.25;10420022;23;1967;-72
2021/12/24 10:44:41;;;;;;;;;;;;;;;18.03;29.27;94775.94;10412281;28;1958;-71
2021/12/24 10:50:48;;;;;;;;;;;;;;;18.03;29.27;94775.16;10401557;28;1893;-71
2021/12/24 10:55:20;;;;;;;;;;;;;;;17.98;29.41;94767.34;10394953;28;1993;-72
2021/12/24 11:00:29;;;;;;;;;;;;;;;18.04;29.27;94760.97;10401747;28;1947;-71
2021/12/24 11:05:34;;;;;;;;;;;;;;;18.01;29.30;94756.31;10413694;28;1827;-71
2021/12/24 11:10:37;;;;;;;;;;;;;;;17.98;29.30;94747.16;10380780;28;1861;-70
2021/12/24 11:15:38;;;;;;;;;;;;;;;18.05;29.27;94731.09;10412530;28;1986;-72
2021/12/24 11:20:38;;;;;;;;;;;;;;;18.00;29.33;94715.41;10403188;28;1910;-71
2021/12/24 11:25:43;;;;;;;;;;;;;;;18.00;29.43;94713.56;10403526;28;1874;-71
2021/12/24 11:30:49;;;;;;;;;;;;;;;17.98;29.54;94720.94;10411119;28;1926;-72
2021/12/24 11:35:50;;;;;;;;;;;;;;;18.02;29.49;94727.16;10399905;28;1855;-71
2021/12/24 11:40:52;;;;;;;;;;;;;;;17.99;29.50;94716.47;10389163;28;1975;-71
2021/12/24 11:45:52;;;;;;;;;;;;;;;18.00;29.43;94712.78;10416769;28;1798;-71
2021/12/24 11:50:53;;;;;;;;;;;;;;;18.01;29.49;94709.09;10408636;28;1885;-70
2021/12/24 11:55:54;;;;;;;;;;;;;;;18.04;29.43;94714.56;10397874;28;1890;-71
2021/12/24 12:00:55;;;;;;;;;;;;;;;18.02;29.53;94713.28;10410228;28;1910;-71
2021/12/24 12:05:56;;;;;;;;;;;;;;;18.05;29.46;94712.72;10378830;28;2245;-71
2021/12/24 12:11:00;;;;;;;;;;;;;;;18.01;29.47;94714.34;10413278;28;2120;-72
2021/12/24 12:16:01;;;;;;;;;;;;;;;18.04;29.62;94696.19;10407376;28;1824;-72
2021/12/24 12:21:23;;;;;;;;;;;;;;;18.03;29.69;94699.13;10408139;28;1973;-72
2021/12/24 12:26:43;;;;;;;;;;;;;;;17.99;29.63;94693.63;10381432;28;1896;-71
2021/12/24 12:31:45;;;;;;;;;;;;;;;18.01;29.76;94688.88;10392148;28;1927;-72
2021/12/24 12:36:45;;;;;;;;;;;;;;;18.03;29.72;94676.31;10404154;28;2363;-72
2021/12/24 12:41:49;;;;;;;;;;;;;;;18.01;29.77;94688.13;10408744;28;1914;-72
2021/12/24 12:46:51;;;;;;;;;;;;;;;18.02;29.67;94676.56;10388213;28;1868;-72
2021/12/24 12:51:55;;;;;;;;;;;;;;;18.06;29.57;94677.56;10405326;28;1837;-72
2021/12/24 12:57:15;;;;;;;;;;;;;;;18.02;29.71;94681.81;10402391;28;1840;-72
2021/12/24 13:02:15;;;;;;;;;;;;;;;17.99;29.83;94672.66;10390906;28;2238;-72
2021/12/24 13:07:20;;;;;;;;;;;;;;;18.01;29.67;94665.28;10405902;28;2156;-72
2021/12/24 13:12:21;;;;;;;;;;;;;;;18.03;29.68;94665.81;10411964;28;1822;-70
2021/12/24 13:17:22;;;;;;;;;;;;;;;17.97;29.82;94660.91;10397268;28;1826;-72
2021/12/24 13:22:32;;;;;;;;;;;;;;;18.01;29.68;94660.03;10419092;28;2219;-72
2021/12/24 13:27:37;;;;;;;;;;;;;;;17.99;29.77;94658.78;10400495;28;2079;-72
2021/12/24 13:32:42;;;;;;;;;;;;;;;17.99;29.77;94643.81;10398896;28;1806;-72
2021/12/24 13:37:46;;;;;;;;;;;;;;;18.03;29.67;94646.66;10398192;28;1975;-72
2021/12/24 13:42:47;;;;;;;;;;;;;;;18.00;29.76;94639.34;10409395;28;1910;-72
2021/12/24 13:47:58;;;;;;;;;;;;;;;17.99;29.90;94635.19;10391117;28;2000;-72
2021/12/24 13:58:20;;;;;;;;;;;;;;;18.04;29.79;94629.84;10404521;28;2212;-72
2021/12/24 14:03:24;;;;;;;;;;;;;;;18.05;29.73;94632.22;10414773;28;1973;-72
2021/12/24 14:08:25;;;;;;;;;;;;;;;18.00;29.84;94632.28;10388752;28;1790;-72
2021/12/24 14:13:29;;;;;;;;;;;;;;;18.00;29.89;94627.03;10414365;28;1842;-72
2021/12/24 14:18:55;;;;;;;;;;;;;;;18.03;29.80;94628.31;10408551;28;1823;-73
2021/12/24 14:24:07;;;;;;;;;;;;;;;18.01;29.89;94630.44;10390469;28;1967;-72
2021/12/24 14:29:07;;;;;;;;;;;;;;;18.02;29.73;94630.16;10408232;28;1925;-72
2021/12/24 14:34:08;;;;;;;;;;;;;;;18.00;30.01;94631.50;10374535;28;1838;-72
2021/12/24 14:39:15;;;;;;;;;;;;;;;17.95;30.08;94626.34;10384390;28;1902;-72
2021/12/24 14:44:28;;;;;;;;;;;;;;;18.02;29.90;94626.75;10409240;28;1847;-72
2021/12/24 14:49:35;;;;;;;;;;;;;;;18.00;29.82;94615.75;10405806;28;2176;-72
2021/12/24 14:54:36;;;;;;;;;;;;;;;17.98;29.99;94631.00;10395379;28;1873;-73
2021/12/24 14:59:39;;;;;;;;;;;;;;;18.01;29.93;94636.44;10393377;28;1979;-71
2021/12/24 15:04:40;;;;;;;;;;;;;;;18.04;29.90;94637.72;10414436;28;1781;-71
2021/12/24 15:09:40;;;;;;;;;;;;;;;17.97;30.03;94637.31;10403161;28;1937;-71
2021/12/24 15:14:41;;;;;;;;;;;;;;;18.01;30.00;94633.81;10406739;28;1713;-71
2021/12/24 15:19:41;;;;;;;;;;;;;;;18.01;29.96;94643.56;10396311;28;1937;-71
2021/12/24 15:24:42;;;;;;;;;;;;;;;18.01;29.98;94641.69;10409768;28;1885;-71
2021/12/24 15:29:42;;;;;;;;;;;;;;;18.01;29.98;94640.94;10406196;28;1827;-72
2021/12/24 15:34:43;;;;;;;;;;;;;;;17.98;30.13;94642.28;10416672;28;1762;-73
2021/12/24 15:39:43;;;;;;;;;;;;;;;17.94;30.04;94640.50;10403139;28;1977;-71
2021/12/24 15:44:47;;;;;;;;;;;;;;;18.01;30.04;94646.19;10418177;28;1811;-72
2021/12/24 15:49:48;;;;;;;;;;;;;;;18.02;30.06;94645.09;10397828;28;1831;-71
2021/12/24 15:54:48;;;;;;;;;;;;;;;18.00;30.14;94644.59;10410761;28;1863;-71
2021/12/24 15:59:48;;;;;;;;;;;;;;;18.05;30.03;94642.72;10408543;28;1910;-73
2021/12/24 16:04:49;;;;;;;;;;;;;;;17.99;30.11;94645.69;10412868;28;1840;-72
2021/12/24 16:09:49;;;;;;;;;;;;;;;18.04;30.05;94642.97;10401505;28;1701;-71
2021/12/24 16:14:49;;;;;;;;;;;;;;;18.03;30.09;94633.56;10408069;28;1875;-73
2021/12/24 16:19:50;;;;;;;;;;;;;;;18.03;30.26;94633.56;10399441;28;2118;-72
2021/12/24 16:24:50;;;;;;;;;;;;;;;18.04;30.18;94633.28;10401176;28;1799;-72
2021/12/24 16:29:52;;;;;;;;;;;;;;;18.02;30.16;94622.28;10412487;28;1933;-73
2021/12/24 16:34:52;;;;;;;;;;;;;;;18.06;30.13;94619.88;10414071;28;2038;-71
2021/12/24 16:39:53;;;;;;;;;;;;;;;18.12;29.96;94613.47;10399894;28;1961;-72
2021/12/24 16:44:53;;;;;;;;;;;;;;;18.02;30.23;94611.78;10420809;28;1770;-73
2021/12/24 16:49:53;;;;;;;;;;;;;;;18.05;30.16;94610.47;10397970;28;1898;-72
2021/12/24 16:54:55;;;;;;;;;;;;;;;18.10;30.10;94602.50;10398077;28;1809;-72
2021/12/24 16:59:55;;;;;;;;;;;;;;;18.05;30.16;94597.34;10415086;28;1895;-72
2021/12/24 17:04:55;;;;;;;;;;;;;;;18.06;30.11;94602.28;10416359;28;1873;-73
2021/12/24 17:09:56;;;;;;;;;;;;;;;18.08;29.87;94609.88;10402900;28;1820;-72
2021/12/24 17:14:59;;;;;;;;;;;;;;;18.06;30.15;94606.75;10404001;28;2064;-73
2021/12/24 17:20:00;;;;;;;;;;;;;;;18.06;30.28;94596.25;10402533;28;2068;-74
2021/12/24 17:25:00;;;;;;;;;;;;;;;18.05;30.24;94611.25;10392880;28;1837;-74
2021/12/24 17:30:01;;;;;;;;;;;;;;;18.07;30.13;94603.88;10400306;28;1773;-74
2021/12/24 17:35:02;;;;;;;;;;;;;;;18.03;30.25;94610.75;10411159;28;1902;-74
2021/12/24 17:40:03;;;;;;;;;;;;;;;18.06;30.35;94591.81;10408031;28;1942;-74
2021/12/24 17:45:05;;;;;;;;;;;;;;;18.07;30.24;94597.84;10408481;28;2287;-74
2021/12/24 17:50:06;;;;;;;;;;;;;;;18.05;30.24;94595.50;10391177;28;1873;-73
2021/12/24 17:55:07;;;;;;;;;;;;;;;18.06;30.24;94591.03;10401475;28;1904;-75
2021/12/24 18:00:11;;;;;;;;;;;;;;;18.11;30.27;94596.19;10388961;28;1977;-74
2021/12/24 18:05:12;;;;;;;;;;;;;;;18.07;30.33;94600.47;10414660;28;1845;-74
2021/12/24 18:10:14;;;;;;;;;;;;;;;18.04;30.41;94590.53;10403333;28;1868;-74
2021/12/24 18:15:15;;;;;;;;;;;;;;;18.06;30.43;94591.03;10420172;28;1860;-74
2021/12/24 18:20:16;;;;;;;;;;;;;;;18.11;30.21;94588.34;10400271;28;1977;-74
2021/12/24 18:25:16;;;;;;;;;;;;;;;18.08;30.29;94583.66;10388390;28;1912;-74
2021/12/24 18:30:19;;;;;;;;;;;;;;;18.06;30.42;94585.78;10392750;28;1887;-74
2021/12/24 18:35:20;;;;;;;;;;;;;;;18.09;30.37;94579.97;10378791;28;1846;-73
2021/12/24 18:40:20;;;;;;;;;;;;;;;18.04;30.56;94572.19;10401570;28;1969;-73
2021/12/24 18:45:21;;;;;;;;;;;;;;;18.06;30.47;94567.41;10408779;28;1866;-72
2021/12/24 18:50:21;;;;;;;;;;;;;;;18.06;30.53;94559.56;10400417;28;1865;-73
2021/12/24 18:55:22;;;;;;;;;;;;;;;18.04;30.39;94561.69;10407447;28;1863;-75
2021/12/24 19:00:23;;;;;;;;;;;;;;;18.05;30.53;94563.25;10423494;28;1902;-75
2021/12/24 19:05:25;;;;;;;;;;;;;;;18.07;30.53;94558.50;10415006;28;1835;-75
2021/12/24 19:10:26;;;;;;;;;;;;;;;18.07;30.49;94555.88;10393018;28;1893;-74
2021/12/24 19:15:26;;;;;;;;;;;;;;;18.05;30.54;94556.19;10408017;28;1822;-74
2021/12/24 19:20:27;;;;;;;;;;;;;;;18.09;30.46;94553.75;10393301;28;1906;-74
2021/12/24 19:25:27;;;;;;;;;;;;;;;18.08;30.47;94550.34;10419450;28;1830;-74
2021/12/24 19:30:28;;;;;;;;;;;;;;;18.07;30.58;94553.25;10391449;28;1835;-75
2021/12/24 19:35:28;;;;;;;;;;;;;;;18.03;30.61;94557.53;10393167;28;1764;-74
2021/12/24 19:40:32;;;;;;;;;;;;;;;18.04;30.61;94553.81;10393045;28;2050;-74
2021/12/24 19:45:33;;;;;;;;;;;;;;;18.08;30.60;94557.44;10417767;28;1770;-74
2021/12/24 19:50:34;;;;;;;;;;;;;;;18.08;30.59;94549.56;10398178;28;1883;-74
2021/12/24 19:55:34;;;;;;;;;;;;;;;18.08;30.58;94544.31;10386806;28;1837;-75
2021/12/24 20:00:35;;;;;;;;;;;;;;;18.06;30.66;94539.38;10401145;28;1980;-74
2021/12/24 20:05:35;;;;;;;;;;;;;;;18.06;30.71;94544.59;10400920;28;1843;-75
2021/12/24 20:10:36;;;;;;;;;;;;;;;18.10;30.53;94534.31;10430112;28;1815;-74
2021/12/24 20:15:36;;;;;;;;;;;;;;;18.07;30.62;94532.28;10414642;28;1784;-75
2021/12/24 20:20:37;;;;;;;;;;;;;;;18.07;30.61;94529.66;10386083;28;1968;-75
2021/12/24 20:25:37;;;;;;;;;;;;;;;18.09;30.51;94530.94;10399726;28;1754;-74
2021/12/24 20:30:39;;;;;;;;;;;;;;;18.07;30.67;94532.28;10372180;28;1844;-75
2021/12/24 20:35:39;;;;;;;;;;;;;;;18.10;30.59;94523.81;10397927;28;1952;-74
2021/12/24 20:40:39;;;;;;;;;;;;;;;18.05;30.66;94516.06;10390241;28;1902;-74
2021/12/24 20:45:40;;;;;;;;;;;;;;;18.08;30.61;94510.22;10412161;28;1947;-75
2021/12/24 20:50:42;;;;;;;;;;;;;;;18.05;30.66;94508.97;10403756;28;1807;-74
2021/12/24 20:55:44;;;;;;;;;;;;;;;18.07;30.64;94508.69;10404156;28;1827;-74
2021/12/24 21:00:45;;;;;;;;;;;;;;;18.10;30.53;94508.88;10410064;28;1973;-73
2021/12/24 21:05:45;;;;;;;;;;;;;;;18.09;30.58;94517.03;10406226;28;1838;-73
2021/12/24 21:10:45;;;;;;;;;;;;;;;18.08;30.64;94516.25;10368474;28;1883;-72
2021/12/24 21:15:46;;;;;;;;;;;;;;;18.10;30.56;94513.34;10392262;28;1839;-72
2021/12/24 21:20:47;;;;;;;;;;;;;;;18.09;30.69;94501.31;10397044;28;1919;-73
2021/12/24 21:25:48;;;;;;;;;;;;;;;18.08;30.72;94516.25;10388398;28;1878;-72
2021/12/24 21:30:49;;;;;;;;;;;;;;;18.10;30.68;94508.88;10405406;28;1957;-73
2021/12/24 21:35:49;;;;;;;;;;;;;;;18.09;30.65;94511.78;10420082;28;1849;-74
2021/12/24 21:40:50;;;;;;;;;;;;;;;18.11;30.70;94514.91;10386321;28;1910;-72
2021/12/24 21:45:50;;;;;;;;;;;;;;;18.11;30.59;94518.31;10414348;28;1817;-72
2021/12/24 21:50:51;;;;;;;;;;;;;;;18.11;30.70;94512.28;10412440;28;1766;-72
2021/12/24 21:55:51;;;;;;;;;;;;;;;18.08;30.84;94512.84;10400421;28;1822;-73
2021/12/24 22:00:51;;;;;;;;;;;;;;;18.07;30.79;94524.41;10393522;28;1902;-74
2021/12/24 22:11:18;;;;;;;;;;;;;;;18.13;30.64;94524.06;10399562;28;1774;-75
2021/12/24 22:16:19;;;;;;;;;;;;;;;18.10;30.82;94523.81;10405108;28;1834;-74
2021/12/24 22:21:22;;;;;;;;;;;;;;;18.10;30.76;94534.31;10381402;28;1980;-75
2021/12/24 22:26:23;;;;;;;;;;;;;;;18.12;30.85;94535.59;10399850;28;1799;-74
2021/12/24 22:31:23;;;;;;;;;;;;;;;18.09;30.92;94527.53;10383394;28;1845;-75
2021/12/24 22:36:24;;;;;;;;;;;;;;;18.10;30.86;94539.56;10376411;28;1775;-75
2021/12/24 22:41:24;;;;;;;;;;;;;;;18.13;30.78;94536.38;10364536;28;1967;-73
2021/12/24 22:46:25;;;;;;;;;;;;;;;18.09;30.80;94525.69;10400338;28;2211;-74
2021/12/24 22:51:35;;;;;;;;;;;;;;;18.06;30.92;94521.00;10391096;28;1777;-75
2021/12/24 22:56:36;;;;;;;;;;;;;;;18.06;30.92;94517.59;10405786;28;1665;-73
2021/12/24 23:01:36;;;;;;;;;;;;;;;18.09;30.87;94523.06;10409784;28;2262;-75
2021/12/24 23:06:37;;;;;;;;;;;;;;;18.10;30.82;94524.63;10395788;28;2233;-74
2021/12/24 23:11:37;;;;;;;;;;;;;;;18.10;30.85;94527.22;10399647;28;2219;-75
2021/12/24 23:16:40;;;;;;;;;;;;;;;18.09;30.88;94511.78;10383602;28;1869;-75
2021/12/24 23:21:40;;;;;;;;;;;;;;;18.12;30.94;94511.22;10396252;28;1962;-75
2021/12/24 23:26:41;;;;;;;;;;;;;;;18.07;30.95;94508.69;10408211;28;1866;-75
2021/12/24 23:31:41;;;;;;;;;;;;;;;18.09;31.00;94520.44;10374546;28;1853;-75
2021/12/24 23:36:42;;;;;;;;;;;;;;;18.10;31.04;94519.38;10388411;28;1891;-75
2021/12/24 23:41:43;;;;;;;;;;;;;;;18.06;31.09;94518.38;10392892;28;1977;-75
2021/12/24 23:51:50;;;;;;;;;;;;;;;18.08;30.96;94504.97;10424203;23;2112;-66
2021/12/24 23:56:51;;;;;;;;;;;;;;;18.10;31.04;94518.59;10408742;28;1880;-65
